Time;durP1;ratioP1;P1;durP2;ratioP2;P2;SDS_P1;SDS_P2;PMS_P1;PMS_P2;Temp;Humidity;BMP_temperature;BMP_pressure;BME280_temperature;BME280_humidity;BME280_pressure;Samples;Min_cycle;Max_cycle;Signal;HPM_P1;HPM_P2
2021/10/19 00:00:45;;;;;;;;;;;11.00;97.70;;;;;;5088447;28;19927;-68
2021/10/19 00:03:10;;;;;;;;;;;11.00;97.70;;;;;;5088421;28;19912;-68
2021/10/19 00:05:36;;;;;;;;;;;11.00;97.70;;;;;;5090962;28;19969;-68
2021/10/19 00:08:01;;;;;;;;;;;11.00;97.60;;;;;;5087890;28;19923;-68
2021/10/19 00:10:27;;;;;;;;;;;11.00;97.70;;;;;;5088675;28;19924;-68
2021/10/19 00:12:52;;;;;;;;;;;11.00;97.70;;;;;;5087283;28;19916;-68
2021/10/19 00:15:18;;;;;;;;;;;11.00;97.60;;;;;;5089452;28;19924;-69
2021/10/19 00:17:45;;;;;;;;;;;11.10;97.70;;;;;;5086842;28;19912;-68
2021/10/19 00:20:11;;;;;;;;;;;11.10;97.70;;;;;;5089060;28;19916;-69
2021/10/19 00:22:36;;;;;;;;;;;11.10;97.60;;;;;;5088207;28;19923;-68
2021/10/19 00:25:04;;;;;;;;;;;11.10;97.70;;;;;;5090402;28;19916;-69
2021/10/19 00:27:33;;;;;;;;;;;11.10;97.70;;;;;;5088917;28;19927;-68
2021/10/19 00:29:59;;;;;;;;;;;11.10;97.60;;;;;;5071046;28;20300;-69
2021/10/19 00:32:25;;;;;;;;;;;11.10;98.00;;;;;;5069114;28;19912;-69
2021/10/19 00:34:50;;;;;;;;;;;11.10;97.70;;;;;;5088530;28;20006;-69
2021/10/19 00:37:15;;;;;;;;;;;11.10;97.70;;;;;;5088589;28;19913;-69
2021/10/19 00:39:41;;;;;;;;;;;11.10;97.70;;;;;;5089645;28;19908;-68
2021/10/19 00:42:06;;;;;;;;;;;11.20;97.70;;;;;;5089722;28;19935;-68
2021/10/19 00:44:32;;;;;;;;;;;11.20;97.70;;;;;;5089193;28;19965;-68
2021/10/19 00:46:58;;;;;;;;;;;11.20;97.70;;;;;;5088810;28;19913;-68
2021/10/19 00:49:26;;;;;;;;;;;11.20;97.60;;;;;;5085049;28;19920;-69
2021/10/19 00:51:52;;;;;;;;;;;11.20;97.70;;;;;;5089897;28;20025;-68
2021/10/19 00:54:18;;;;;;;;;;;11.20;97.60;;;;;;5087756;28;19916;-68
2021/10/19 00:56:44;;;;;;;;;;;11.20;97.50;;;;;;5089894;28;19923;-68
2021/10/19 00:59:10;;;;;;;;;;;11.20;97.50;;;;;;5088965;28;19919;-68
2021/10/19 01:01:35;;;;;;;;;;;11.20;97.60;;;;;;5089522;28;20425;-68
2021/10/19 01:04:01;;;;;;;;;;;11.10;97.50;;;;;;5089451;28;20370;-69
2021/10/19 01:06:27;;;;;;;;;;;11.10;97.50;;;;;;5087108;28;19962;-70
2021/10/19 01:08:52;;;;;;;;;;;11.10;97.60;;;;;;5087651;28;19931;-68
2021/10/19 01:11:18;;;;;;;;;;;11.10;97.70;;;;;;5085905;28;19926;-68
2021/10/19 01:13:43;;;;;;;;;;;11.10;97.70;;;;;;5086774;28;19940;-68
2021/10/19 01:16:10;;;;;;;;;;;11.10;97.70;;;;;;5088072;28;19997;-68
2021/10/19 01:18:36;;;;;;;;;;;11.10;97.70;;;;;;5086268;28;20358;-69
2021/10/19 01:21:02;;;;;;;;;;;11.10;97.70;;;;;;5087544;28;19916;-69
2021/10/19 01:23:27;;;;;;;;;;;11.10;97.70;;;;;;5070212;28;20001;-69
2021/10/19 01:25:53;;;;;;;;;;;11.10;97.70;;;;;;5087828;28;19920;-68
2021/10/19 01:28:19;;;;;;;;;;;11.10;97.80;;;;;;5087069;28;20381;-69
2021/10/19 01:30:46;;;;;;;;;;;11.10;97.80;;;;;;5087494;28;19954;-68
2021/10/19 01:33:12;;;;;;;;;;;11.10;97.70;;;;;;5086140;28;20025;-68
2021/10/19 01:35:39;;;;;;;;;;;11.10;97.90;;;;;;5087859;28;19961;-69
2021/10/19 01:38:05;;;;;;;;;;;11.10;97.80;;;;;;5088361;28;20484;-68
2021/10/19 01:40:31;;;;;;;;;;;11.20;97.80;;;;;;5086938;28;20452;-69
2021/10/19 01:42:56;;;;;;;;;;;11.10;97.80;;;;;;5087664;28;19920;-70
2021/10/19 01:45:21;;;;;;;;;;;11.20;97.90;;;;;;5089446;28;19908;-69
2021/10/19 01:47:47;;;;;;;;;;;11.20;97.80;;;;;;5086368;28;19920;-69
2021/10/19 01:50:13;;;;;;;;;;;11.20;97.90;;;;;;5088646;28;19947;-69
2021/10/19 01:52:40;;;;;;;;;;;11.20;97.90;;;;;;5085603;28;19916;-70
2021/10/19 01:55:07;;;;;;;;;;;11.30;97.90;;;;;;5089106;28;20789;-69
2021/10/19 01:57:32;;;;;;;;;;;11.30;97.80;;;;;;5087609;28;19922;-69
2021/10/19 01:59:58;;;;;;;;;;;11.40;97.80;;;;;;5088943;28;19912;-69
2021/10/19 02:02:23;;;;;;;;;;;11.40;97.70;;;;;;5085608;28;19971;-69
2021/10/19 02:04:49;;;;;;;;;;;11.40;97.70;;;;;;5084180;28;20348;-69
2021/10/19 02:07:14;;;;;;;;;;;11.40;97.70;;;;;;5069459;28;20333;-70
2021/10/19 02:09:39;;;;;;;;;;;11.40;97.60;;;;;;5088930;28;19966;-69
2021/10/19 02:12:05;;;;;;;;;;;11.40;97.60;;;;;;5087178;28;19957;-69
2021/10/19 02:14:30;;;;;;;;;;;11.40;97.60;;;;;;5087869;28;19916;-69
2021/10/19 02:16:56;;;;;;;;;;;11.40;97.70;;;;;;5088153;28;19912;-70
2021/10/19 02:19:25;;;;;;;;;;;11.40;97.70;;;;;;5089259;28;19916;-70
2021/10/19 02:21:52;;;;;;;;;;;11.40;97.70;;;;;;5084497;28;20402;-69
2021/10/19 02:24:17;;;;;;;;;;;11.40;97.70;;;;;;5087892;28;19912;-69
2021/10/19 02:26:43;;;;;;;;;;;11.40;97.80;;;;;;5086709;28;19916;-69
2021/10/19 02:29:08;;;;;;;;;;;11.40;97.80;;;;;;5088908;28;19916;-69
2021/10/19 02:31:34;;;;;;;;;;;11.40;97.80;;;;;;5086853;28;19954;-69
2021/10/19 02:33:59;;;;;;;;;;;11.40;97.80;;;;;;5085180;28;19922;-69
2021/10/19 02:36:24;;;;;;;;;;;11.40;97.80;;;;;;5088992;28;19999;-69
2021/10/19 02:38:50;;;;;;;;;;;11.40;97.80;;;;;;5086693;28;19951;-69
2021/10/19 02:41:15;;;;;;;;;;;11.40;97.90;;;;;;5090866;28;19955;-69
2021/10/19 02:43:41;;;;;;;;;;;11.50;97.90;;;;;;5091233;28;19923;-69
2021/10/19 02:46:06;;;;;;;;;;;11.40;97.90;;;;;;5072907;28;19912;-69
2021/10/19 02:48:31;;;;;;;;;;;11.50;97.90;;;;;;5092020;28;19916;-70
2021/10/19 02:50:57;;;;;;;;;;;11.50;97.90;;;;;;5091765;28;19912;-70
2021/10/19 02:53:22;;;;;;;;;;;11.50;97.90;;;;;;5091421;28;19923;-70
2021/10/19 02:55:48;;;;;;;;;;;11.50;98.10;;;;;;5090213;28;19912;-70
2021/10/19 02:58:13;;;;;;;;;;;11.50;97.90;;;;;;5092262;28;19986;-69
2021/10/19 03:00:39;;;;;;;;;;;11.50;97.90;;;;;;5089086;28;19943;-69
2021/10/19 03:03:04;;;;;;;;;;;11.50;97.80;;;;;;5089982;28;19993;-68
2021/10/19 03:05:30;;;;;;;;;;;11.50;97.80;;;;;;5091408;28;20053;-69
2021/10/19 03:07:55;;;;;;;;;;;11.50;97.90;;;;;;5091426;28;20088;-68
2021/10/19 03:10:20;;;;;;;;;;;11.50;97.90;;;;;;5088599;28;19916;-69
2021/10/19 03:12:46;;;;;;;;;;;11.50;97.90;;;;;;5090772;28;19919;-68
2021/10/19 03:15:12;;;;;;;;;;;11.50;97.90;;;;;;5089914;28;19936;-69
2021/10/19 03:17:37;;;;;;;;;;;11.60;97.90;;;;;;5089328;28;20391;-69
2021/10/19 03:20:03;;;;;;;;;;;11.60;97.90;;;;;;5090427;28;19916;-68
2021/10/19 03:22:28;;;;;;;;;;;11.60;97.90;;;;;;5091257;28;20382;-68
2021/10/19 03:24:54;;;;;;;;;;;11.60;98.00;;;;;;5088608;28;20293;-68
2021/10/19 03:27:19;;;;;;;;;;;11.60;98.00;;;;;;5091774;28;20012;-68
2021/10/19 03:29:44;;;;;;;;;;;11.60;98.00;;;;;;5089255;28;20381;-68
2021/10/19 03:32:10;;;;;;;;;;;11.60;98.00;;;;;;5089833;28;19923;-69
2021/10/19 03:34:36;;;;;;;;;;;11.70;98.10;;;;;;5089645;28;20255;-70
2021/10/19 03:37:01;;;;;;;;;;;11.70;98.10;;;;;;5091799;28;19923;-68
2021/10/19 03:39:27;;;;;;;;;;;11.70;98.00;;;;;;5070435;28;19912;-69
2021/10/19 03:41:52;;;;;;;;;;;11.70;98.00;;;;;;5072558;28;20412;-68
2021/10/19 03:44:18;;;;;;;;;;;11.70;98.00;;;;;;5089949;28;19916;-68
2021/10/19 03:46:43;;;;;;;;;;;11.70;98.00;;;;;;5089557;28;19912;-68
2021/10/19 03:49:09;;;;;;;;;;;11.70;98.00;;;;;;5088937;28;19920;-68
2021/10/19 03:51:34;;;;;;;;;;;11.70;98.00;;;;;;5090516;28;19908;-69
2021/10/19 03:53:59;;;;;;;;;;;11.70;98.10;;;;;;5070571;28;19912;-69
2021/10/19 03:56:25;;;;;;;;;;;11.70;98.10;;;;;;5091344;28;19916;-69
2021/10/19 03:58:50;;;;;;;;;;;11.80;98.00;;;;;;5090569;28;19912;-70
2021/10/19 04:01:16;;;;;;;;;;;11.80;98.00;;;;;;5071859;28;19969;-69
2021/10/19 04:03:42;;;;;;;;;;;11.80;97.90;;;;;;5087567;28;19916;-70
2021/10/19 04:06:08;;;;;;;;;;;11.80;97.90;;;;;;5089875;28;19918;-69
2021/10/19 04:08:34;;;;;;;;;;;11.90;97.80;;;;;;5088275;28;19927;-69
2021/10/19 04:10:59;;;;;;;;;;;11.90;97.70;;;;;;5088997;28;19916;-69
2021/10/19 04:13:25;;;;;;;;;;;11.90;97.70;;;;;;5089490;28;19915;-70
2021/10/19 04:15:50;;;;;;;;;;;11.90;97.70;;;;;;5089459;28;20318;-69
2021/10/19 04:18:16;;;;;;;;;;;11.90;97.60;;;;;;5090474;28;20332;-69
2021/10/19 04:20:41;;;;;;;;;;;12.00;97.50;;;;;;5089462;28;19916;-69
2021/10/19 04:23:06;;;;;;;;;;;12.00;97.50;;;;;;5088473;28;19927;-69
2021/10/19 04:25:32;;;;;;;;;;;12.00;97.50;;;;;;5070200;28;19996;-69
2021/10/19 04:27:57;;;;;;;;;;;12.00;97.40;;;;;;5088991;28;19924;-68
2021/10/19 04:30:23;;;;;;;;;;;12.00;97.40;;;;;;5090502;28;19963;-69
2021/10/19 04:32:48;;;;;;;;;;;12.00;97.40;;;;;;5089139;28;19999;-67
2021/10/19 04:35:14;;;;;;;;;;;12.00;97.40;;;;;;5085737;28;19923;-67
2021/10/19 04:37:39;;;;;;;;;;;12.00;97.40;;;;;;5084547;28;20294;-67
2021/10/19 04:40:05;;;;;;;;;;;12.00;97.30;;;;;;5083445;28;19976;-66
2021/10/19 04:42:33;;;;;;;;;;;12.10;97.30;;;;;;5085665;28;19919;-67
2021/10/19 04:44:59;;;;;;;;;;;12.10;97.30;;;;;;5084871;28;19953;-67
2021/10/19 04:47:25;;;;;;;;;;;12.10;97.20;;;;;;5089042;28;19908;-68
2021/10/19 04:49:50;;;;;;;;;;;12.10;97.20;;;;;;5083433;28;20445;-67
2021/10/19 04:52:15;;;;;;;;;;;12.10;97.20;;;;;;5084529;28;20347;-67
2021/10/19 04:54:41;;;;;;;;;;;12.10;97.20;;;;;;5084371;28;20315;-68
2021/10/19 04:57:06;;;;;;;;;;;12.10;97.10;;;;;;5067515;28;20422;-67
2021/10/19 04:59:32;;;;;;;;;;;12.10;97.20;;;;;;5086023;28;19918;-67
2021/10/19 05:01:57;;;;;;;;;;;12.10;97.20;;;;;;5087749;28;19908;-67
2021/10/19 05:04:23;;;;;;;;;;;12.10;97.20;;;;;;5085977;28;20010;-67
2021/10/19 05:06:48;;;;;;;;;;;12.10;97.20;;;;;;5081212;28;19920;-66
2021/10/19 05:09:13;;;;;;;;;;;12.10;97.20;;;;;;5086628;28;20342;-71
2021/10/19 05:11:39;;;;;;;;;;;12.10;97.20;;;;;;5085329;28;19996;-70
2021/10/19 05:14:04;;;;;;;;;;;12.10;97.20;;;;;;5088789;28;19916;-71
2021/10/19 05:16:30;;;;;;;;;;;12.10;97.20;;;;;;5088588;28;19916;-70
2021/10/19 05:18:55;;;;;;;;;;;12.10;97.30;;;;;;5088684;28;19959;-70
2021/10/19 05:23:59;;;;;;;;;;;12.10;97.30;;;;;;5071068;28;19928;-61
2021/10/19 05:26:25;;;;;;;;;;;12.10;97.40;;;;;;5066095;28;20284;-61
2021/10/19 05:28:50;;;;;;;;;;;12.10;97.40;;;;;;5072082;28;20283;-60
2021/10/19 05:31:15;;;;;;;;;;;12.00;97.40;;;;;;5078264;28;20889;-61
2021/10/19 05:33:41;;;;;;;;;;;12.00;97.40;;;;;;5071885;28;20375;-60
2021/10/19 05:36:06;;;;;;;;;;;12.10;97.40;;;;;;5072019;28;20544;-59
2021/10/19 05:38:33;;;;;;;;;;;12.10;97.30;;;;;;5066685;28;19913;-59
2021/10/19 05:41:02;;;;;;;;;;;12.10;97.30;;;;;;5082371;28;20425;-59
2021/10/19 05:43:27;;;;;;;;;;;12.00;97.20;;;;;;5065929;28;19913;-60
2021/10/19 05:45:52;;;;;;;;;;;12.10;97.20;;;;;;5066558;28;20254;-60
2021/10/19 05:48:18;;;;;;;;;;;12.10;97.20;;;;;;5064197;28;19924;-61
2021/10/19 05:50:43;;;;;;;;;;;12.10;97.10;;;;;;5066621;28;19923;-60
2021/10/19 05:53:09;;;;;;;;;;;12.10;97.10;;;;;;5069665;28;19912;-60
2021/10/19 05:55:34;;;;;;;;;;;12.10;97.20;;;;;;5063542;28;20244;-60
2021/10/19 05:58:00;;;;;;;;;;;12.10;97.10;;;;;;5065804;28;19917;-61
2021/10/19 06:00:25;;;;;;;;;;;12.10;97.10;;;;;;5054052;28;20057;-60
2021/10/19 06:02:51;;;;;;;;;;;12.10;97.10;;;;;;5066874;28;20007;-60
2021/10/19 06:05:16;;;;;;;;;;;12.10;97.20;;;;;;5064660;28;19970;-60
2021/10/19 06:07:42;;;;;;;;;;;12.10;97.10;;;;;;5073368;28;19924;-58
2021/10/19 06:10:08;;;;;;;;;;;12.10;97.20;;;;;;5063207;28;20371;-59
2021/10/19 06:12:33;;;;;;;;;;;12.10;97.20;;;;;;5073792;28;19916;-60
2021/10/19 06:14:59;;;;;;;;;;;12.10;97.30;;;;;;5070260;28;19927;-61
2021/10/19 06:17:24;;;;;;;;;;;12.10;97.30;;;;;;5070193;28;19912;-58
2021/10/19 06:19:50;;;;;;;;;;;12.10;97.40;;;;;;5082766;28;19958;-61
2021/10/19 06:22:15;;;;;;;;;;;12.00;97.40;;;;;;5066664;28;20382;-59
2021/10/19 06:24:41;;;;;;;;;;;12.00;97.50;;;;;;5069418;28;20391;-60
2021/10/19 06:27:06;;;;;;;;;;;12.00;97.50;;;;;;5073516;28;20283;-59
2021/10/19 06:29:32;;;;;;;;;;;12.00;97.50;;;;;;5068469;28;19916;-58
2021/10/19 06:31:57;;;;;;;;;;;12.00;97.50;;;;;;5083210;28;19919;-61
2021/10/19 06:34:23;;;;;;;;;;;12.00;97.50;;;;;;5073452;28;19916;-61
2021/10/19 06:36:49;;;;;;;;;;;12.00;97.50;;;;;;5067623;28;20352;-60
2021/10/19 06:39:14;;;;;;;;;;;12.00;97.50;;;;;;5066819;28;19927;-61
2021/10/19 06:41:40;;;;;;;;;;;12.00;97.60;;;;;;5069646;28;19908;-61
2021/10/19 06:44:05;;;;;;;;;;;12.00;97.60;;;;;;5076915;28;19981;-60
2021/10/19 06:46:31;;;;;;;;;;;12.00;97.90;;;;;;5068184;28;20376;-61
2021/10/19 06:48:56;;;;;;;;;;;12.10;97.60;;;;;;5069812;28;19920;-61
2021/10/19 06:51:22;;;;;;;;;;;12.10;97.70;;;;;;5075917;28;19912;-61
2021/10/19 06:53:47;;;;;;;;;;;12.20;97.70;;;;;;5077026;28;19916;-61
2021/10/19 06:56:13;;;;;;;;;;;12.20;97.70;;;;;;5071234;28;19995;-61
2021/10/19 06:58:38;;;;;;;;;;;12.20;97.70;;;;;;5067684;28;19992;-60
2021/10/19 07:01:05;;;;;;;;;;;12.30;97.70;;;;;;5069349;28;19923;-60
2021/10/19 07:03:31;;;;;;;;;;;12.30;97.60;;;;;;5065951;28;20000;-61
2021/10/19 07:06:02;;;;;;;;;;;12.30;97.50;;;;;;5051276;28;19951;-61
2021/10/19 07:08:28;;;;;;;;;;;12.40;97.60;;;;;;5068764;28;20433;-61
2021/10/19 07:10:54;;;;;;;;;;;12.40;97.60;;;;;;5065840;28;20007;-61
2021/10/19 07:13:23;;;;;;;;;;;12.50;97.50;;;;;;5071612;28;20002;-59
2021/10/19 07:15:52;;;;;;;;;;;12.50;97.50;;;;;;5067410;28;19931;-60
2021/10/19 07:18:17;;;;;;;;;;;12.60;97.40;;;;;;5072154;28;20278;-60
2021/10/19 07:20:43;;;;;;;;;;;12.60;97.30;;;;;;5070560;28;19916;-60
2021/10/19 07:23:08;;;;;;;;;;;12.70;97.30;;;;;;5072204;28;19916;-60
2021/10/19 07:25:34;;;;;;;;;;;12.80;97.20;;;;;;5065401;28;20027;-58
2021/10/19 07:28:00;;;;;;;;;;;12.80;97.10;;;;;;5067805;28;20354;-59
2021/10/19 07:30:26;;;;;;;;;;;12.90;97.00;;;;;;5066635;28;19923;-59
2021/10/19 07:32:53;;;;;;;;;;;12.90;96.90;;;;;;5068264;28;19912;-60
2021/10/19 07:35:19;;;;;;;;;;;13.00;96.80;;;;;;5074484;28;20298;-59
2021/10/19 07:37:45;;;;;;;;;;;13.00;96.80;;;;;;5069142;28;19920;-60
2021/10/19 07:40:12;;;;;;;;;;;13.00;96.60;;;;;;5052793;28;20114;-61
2021/10/19 07:42:38;;;;;;;;;;;13.00;96.60;;;;;;5065269;28;19920;-60
2021/10/19 07:45:04;;;;;;;;;;;13.10;96.60;;;;;;5076374;28;19930;-60
2021/10/19 07:47:30;;;;;;;;;;;13.10;96.40;;;;;;5066925;28;19920;-60
2021/10/19 07:49:55;;;;;;;;;;;13.10;96.30;;;;;;5072803;28;19918;-60
2021/10/19 07:52:21;;;;;;;;;;;13.10;96.20;;;;;;5072921;28;19920;-61
2021/10/19 07:54:47;;;;;;;;;;;13.10;96.30;;;;;;5071092;28;19912;-61
2021/10/19 07:57:13;;;;;;;;;;;13.10;96.30;;;;;;5068144;28;20371;-60
2021/10/19 07:59:38;;;;;;;;;;;13.20;96.30;;;;;;5067010;28;20450;-60
2021/10/19 08:02:04;;;;;;;;;;;13.20;96.20;;;;;;5068626;28;19995;-59
2021/10/19 08:04:29;;;;;;;;;;;13.20;96.20;;;;;;5070865;28;20401;-60
2021/10/19 08:06:55;;;;;;;;;;;13.30;96.20;;;;;;5067550;28;19917;-60
2021/10/19 08:09:20;;;;;;;;;;;13.30;96.00;;;;;;5049368;28;19916;-61
2021/10/19 08:11:46;;;;;;;;;;;13.30;96.00;;;;;;5065054;28;19923;-61
2021/10/19 08:14:11;;;;;;;;;;;13.30;96.00;;;;;;5067191;28;19919;-60
2021/10/19 08:16:37;;;;;;;;;;;13.30;96.00;;;;;;5069035;28;20269;-60
2021/10/19 08:19:03;;;;;;;;;;;13.30;96.10;;;;;;5066056;28;19916;-61
2021/10/19 08:21:29;;;;;;;;;;;13.30;96.00;;;;;;5065613;28;19923;-59
2021/10/19 08:23:54;;;;;;;;;;;13.30;95.90;;;;;;5071954;28;19920;-61
2021/10/19 08:26:19;;;;;;;;;;;13.30;96.00;;;;;;5068667;28;19995;-61
2021/10/19 08:28:47;;;;;;;;;;;13.40;96.00;;;;;;5069446;28;19923;-61
2021/10/19 08:31:14;;;;;;;;;;;13.40;95.90;;;;;;5073517;28;19969;-60
2021/10/19 08:33:40;;;;;;;;;;;13.40;96.10;;;;;;5068740;28;19913;-60
2021/10/19 08:36:07;;;;;;;;;;;13.50;96.00;;;;;;5050058;28;20002;-60
2021/10/19 08:38:33;;;;;;;;;;;13.50;96.20;;;;;;5066607;28;19916;-61
2021/10/19 08:40:58;;;;;;;;;;;13.60;95.90;;;;;;5065004;28;19919;-62
2021/10/19 08:43:24;;;;;;;;;;;13.60;95.80;;;;;;5070117;28;20012;-61
2021/10/19 08:45:49;;;;;;;;;;;13.60;95.80;;;;;;5067035;28;20312;-61
2021/10/19 08:48:15;;;;;;;;;;;13.60;95.90;;;;;;5065096;28;19954;-61
2021/10/19 08:50:40;;;;;;;;;;;13.70;95.90;;;;;;5063390;28;20071;-60
2021/10/19 08:53:06;;;;;;;;;;;13.70;95.90;;;;;;5066291;28;20373;-60
2021/10/19 08:55:31;;;;;;;;;;;13.70;95.90;;;;;;5067006;28;19920;-60
2021/10/19 08:58:02;;;;;;;;;;;13.80;95.90;;;;;;5049511;28;19916;-60
2021/10/19 09:00:27;;;;;;;;;;;13.80;95.80;;;;;;5068559;28;19991;-60
2021/10/19 09:02:53;;;;;;;;;;;13.80;95.80;;;;;;5068618;28;20012;-60
2021/10/19 09:05:21;;;;;;;;;;;13.80;95.80;;;;;;5074551;28;19951;-60
2021/10/19 09:07:57;;;;;;;;;;;13.90;95.80;;;;;;5066459;28;19920;-60
2021/10/19 09:10:23;;;;;;;;;;;13.90;95.80;;;;;;5064477;28;19970;-61
2021/10/19 09:12:51;;;;;;;;;;;14.00;95.80;;;;;;5066207;28;19987;-61
2021/10/19 09:15:19;;;;;;;;;;;14.10;95.70;;;;;;5070117;28;19965;-61
2021/10/19 09:17:44;;;;;;;;;;;14.20;95.80;;;;;;5065898;28;19923;-61
2021/10/19 09:20:15;;;;;;;;;;;14.30;95.70;;;;;;5065311;28;19916;-63
2021/10/19 09:22:50;;;;;;;;;;;14.40;95.70;;;;;;5064913;28;19951;-59
2021/10/19 09:25:23;;;;;;;;;;;14.50;95.70;;;;;;5072585;28;19974;-60
2021/10/19 09:27:48;;;;;;;;;;;14.60;95.60;;;;;;5065893;28;19913;-61
2021/10/19 09:30:13;;;;;;;;;;;14.70;95.60;;;;;;5069213;28;19920;-61
2021/10/19 09:32:49;;;;;;;;;;;14.80;95.60;;;;;;5065289;28;19965;-61
2021/10/19 09:35:21;;;;;;;;;;;14.90;95.60;;;;;;5070944;28;20145;-60
2021/10/19 09:38:00;;;;;;;;;;;15.00;95.40;;;;;;5067344;28;19909;-61
2021/10/19 09:40:42;;;;;;;;;;;15.10;95.40;;;;;;5072541;28;19916;-61
2021/10/19 09:43:09;;;;;;;;;;;15.20;95.30;;;;;;5067762;28;19954;-61
2021/10/19 09:45:34;;;;;;;;;;;15.30;95.30;;;;;;5074445;28;19912;-61
2021/10/19 09:48:00;;;;;;;;;;;15.30;95.10;;;;;;5070161;28;19916;-59
2021/10/19 09:50:26;;;;;;;;;;;15.30;95.00;;;;;;5070369;28;19966;-61
2021/10/19 09:52:52;;;;;;;;;;;15.20;95.10;;;;;;5069285;28;19908;-60
2021/10/19 09:55:18;;;;;;;;;;;15.20;95.10;;;;;;5065043;28;19923;-60
2021/10/19 09:57:43;;;;;;;;;;;15.20;95.20;;;;;;5072300;28;19912;-60
2021/10/19 10:00:10;;;;;;;;;;;15.20;95.20;;;;;;5072989;28;19959;-60
2021/10/19 10:02:36;;;;;;;;;;;15.20;95.30;;;;;;5068326;28;19932;-62
2021/10/19 10:05:03;;;;;;;;;;;15.20;95.20;;;;;;5065873;28;20334;-60
2021/10/19 10:07:30;;;;;;;;;;;15.20;95.30;;;;;;5063874;28;20513;-59
2021/10/19 10:09:57;;;;;;;;;;;15.20;95.20;;;;;;5069876;28;19921;-60
2021/10/19 10:12:26;;;;;;;;;;;15.30;95.20;;;;;;5062775;28;19912;-61
2021/10/19 10:14:52;;;;;;;;;;;15.30;95.20;;;;;;5065899;28;19912;-61
2021/10/19 10:17:17;;;;;;;;;;;15.40;95.30;;;;;;5062847;28;20011;-61
2021/10/19 10:19:45;;;;;;;;;;;15.40;95.20;;;;;;5065542;28;19954;-61
2021/10/19 10:22:18;;;;;;;;;;;15.40;95.10;;;;;;5067976;28;19920;-61
2021/10/19 10:24:43;;;;;;;;;;;15.40;95.10;;;;;;5064172;28;19917;-61
2021/10/19 10:27:10;;;;;;;;;;;15.50;95.10;;;;;;5066060;28;19908;-62
2021/10/19 10:29:37;;;;;;;;;;;15.50;95.00;;;;;;5070848;28;19928;-61
2021/10/19 10:32:02;;;;;;;;;;;15.50;95.10;;;;;;5069734;28;20388;-61
2021/10/19 10:34:29;;;;;;;;;;;15.50;95.10;;;;;;5068477;28;19912;-61
2021/10/19 10:36:54;;;;;;;;;;;15.50;95.20;;;;;;5065412;28;19982;-61
2021/10/19 10:39:20;;;;;;;;;;;15.60;95.30;;;;;;5070883;28;19930;-60
2021/10/19 10:41:46;;;;;;;;;;;15.60;95.30;;;;;;5064482;28;20411;-60
2021/10/19 10:44:12;;;;;;;;;;;15.60;95.30;;;;;;5074196;28;19916;-60
2021/10/19 10:46:40;;;;;;;;;;;15.60;95.30;;;;;;5069927;28;20356;-61
2021/10/19 10:49:11;;;;;;;;;;;15.60;95.30;;;;;;5062093;28;19924;-61
2021/10/19 10:51:38;;;;;;;;;;;15.60;95.30;;;;;;5046397;28;19916;-61
2021/10/19 10:54:04;;;;;;;;;;;15.60;95.40;;;;;;5076234;28;19912;-60
2021/10/19 10:56:39;;;;;;;;;;;15.60;95.40;;;;;;5064337;28;19916;-61
2021/10/19 10:59:04;;;;;;;;;;;15.60;95.50;;;;;;5069094;28;20646;-60
2021/10/19 11:01:33;;;;;;;;;;;15.60;95.50;;;;;;5073711;28;19922;-60
2021/10/19 11:04:05;;;;;;;;;;;15.60;95.50;;;;;;5072374;28;19964;-60
2021/10/19 11:06:31;;;;;;;;;;;15.60;95.60;;;;;;5067379;28;19916;-61
2021/10/19 11:08:57;;;;;;;;;;;15.60;95.60;;;;;;5071853;28;20236;-61
2021/10/19 11:11:24;;;;;;;;;;;15.60;95.70;;;;;;5066514;28;19988;-60
2021/10/19 11:13:54;;;;;;;;;;;15.50;95.70;;;;;;5070517;28;20365;-62
2021/10/19 11:16:29;;;;;;;;;;;15.50;95.80;;;;;;5071859;28;19916;-60
2021/10/19 11:18:54;;;;;;;;;;;15.50;95.80;;;;;;5064498;28;19909;-61
2021/10/19 11:21:20;;;;;;;;;;;15.50;95.90;;;;;;5064806;28;22491;-61
2021/10/19 11:23:45;;;;;;;;;;;15.50;95.90;;;;;;5119681;22;19982;-69
2021/10/19 11:26:11;;;;;;;;;;;15.60;95.90;;;;;;5058162;28;20116;-69
2021/10/19 11:28:37;;;;;;;;;;;15.70;95.90;;;;;;5057040;28;19920;-70
2021/10/19 11:31:04;;;;;;;;;;;15.80;95.90;;;;;;5058500;28;19924;-69
2021/10/19 11:33:34;;;;;;;;;;;15.80;95.90;;;;;;5048688;28;19924;-69
2021/10/19 11:35:59;;;;;;;;;;;15.90;95.80;;;;;;5046970;28;19920;-69
2021/10/19 11:38:27;;;;;;;;;;;16.00;95.70;;;;;;5049343;28;19923;-69
2021/10/19 11:40:52;;;;;;;;;;;16.00;95.70;;;;;;5041376;28;20415;-69
2021/10/19 11:43:19;;;;;;;;;;;16.00;95.70;;;;;;5044444;28;19952;-69
2021/10/19 11:45:44;;;;;;;;;;;16.00;95.70;;;;;;5048476;28;20390;-69
2021/10/19 11:48:11;;;;;;;;;;;16.00;95.70;;;;;;5030063;28;19920;-69
2021/10/19 11:50:37;;;;;;;;;;;16.00;95.70;;;;;;5046793;28;19917;-70
2021/10/19 11:53:04;;;;;;;;;;;16.00;95.80;;;;;;5044933;28;19913;-70
2021/10/19 11:55:31;;;;;;;;;;;16.00;95.80;;;;;;5044544;28;19986;-68
2021/10/19 11:57:57;;;;;;;;;;;16.00;95.90;;;;;;5022082;28;19974;-70
2021/10/19 12:00:23;;;;;;;;;;;16.00;95.90;;;;;;5048094;28;19917;-69
2021/10/19 12:02:58;;;;;;;;;;;16.00;95.90;;;;;;5035281;28;20421;-68
2021/10/19 12:05:24;;;;;;;;;;;16.00;95.90;;;;;;5045430;28;19917;-68
2021/10/19 12:07:51;;;;;;;;;;;16.10;95.90;;;;;;5045573;28;19916;-67
2021/10/19 12:10:19;;;;;;;;;;;16.00;95.90;;;;;;5036775;28;19913;-68
2021/10/19 12:12:51;;;;;;;;;;;16.00;95.90;;;;;;5043908;28;20004;-68
2021/10/19 12:15:21;;;;;;;;;;;16.10;96.00;;;;;;5046309;28;19917;-68
2021/10/19 12:17:57;;;;;;;;;;;16.10;95.90;;;;;;5047387;28;19917;-69
2021/10/19 12:20:24;;;;;;;;;;;16.00;95.90;;;;;;5048191;28;19924;-68
2021/10/19 12:22:49;;;;;;;;;;;16.00;95.90;;;;;;4977959;28;1697343;-68
2021/10/19 12:25:15;;;;;;;;;;;16.00;95.90;;;;;;5048293;28;19921;-69
2021/10/19 12:27:40;;;;;;;;;;;16.00;95.90;;;;;;5045468;28;19917;-69
2021/10/19 12:30:13;;;;;;;;;;;16.00;96.00;;;;;;5048170;28;19912;-69
2021/10/19 12:32:40;;;;;;;;;;;15.90;96.20;;;;;;5042480;28;19921;-69
2021/10/19 12:35:05;;;;;;;;;;;15.80;96.20;;;;;;5045088;28;19970;-68
2021/10/19 12:37:32;;;;;;;;;;;15.80;96.30;;;;;;5046005;28;20015;-70
2021/10/19 12:39:59;;;;;;;;;;;15.80;96.30;;;;;;5046745;28;19913;-69
2021/10/19 12:42:24;;;;;;;;;;;15.80;96.30;;;;;;5043505;28;19952;-68
2021/10/19 12:44:50;;;;;;;;;;;15.80;96.40;;;;;;5046237;28;20038;-68
2021/10/19 12:47:16;;;;;;;;;;;15.80;96.40;;;;;;5046398;28;19917;-67
2021/10/19 12:49:41;;;;;;;;;;;15.80;96.50;;;;;;5047743;28;19917;-67
2021/10/19 12:52:07;;;;;;;;;;;15.80;96.50;;;;;;5045702;28;19913;-69
2021/10/19 12:54:32;;;;;;;;;;;15.80;96.50;;;;;;5042407;28;20382;-68
2021/10/19 12:56:58;;;;;;;;;;;15.80;96.60;;;;;;5046630;28;19988;-68
2021/10/19 12:59:23;;;;;;;;;;;15.80;96.60;;;;;;5050435;28;20376;-69
2021/10/19 13:01:59;;;;;;;;;;;15.90;96.60;;;;;;5020438;28;20394;-70
2021/10/19 13:04:25;;;;;;;;;;;15.90;96.60;;;;;;5029519;28;19916;-67
2021/10/19 13:06:51;;;;;;;;;;;15.90;96.60;;;;;;5028164;28;20016;-67
2021/10/19 13:09:17;;;;;;;;;;;15.90;96.60;;;;;;5025987;28;20004;-67
2021/10/19 13:11:43;;;;;;;;;;;15.90;96.70;;;;;;5049065;28;20004;-68
2021/10/19 13:14:09;;;;;;;;;;;15.90;96.70;;;;;;5041722;28;20021;-67
2021/10/19 13:16:34;;;;;;;;;;;15.90;96.80;;;;;;5046348;28;20379;-68
2021/10/19 13:19:00;;;;;;;;;;;15.90;96.80;;;;;;5044606;28;19913;-68
2021/10/19 13:21:25;;;;;;;;;;;15.80;96.90;;;;;;5043922;28;20002;-68
2021/10/19 13:23:51;;;;;;;;;;;15.80;96.90;;;;;;5044761;28;19917;-67
2021/10/19 13:26:16;;;;;;;;;;;15.80;97.10;;;;;;5038282;28;20299;-67
2021/10/19 13:28:42;;;;;;;;;;;15.80;97.00;;;;;;5045486;28;19917;-68
2021/10/19 13:31:07;;;;;;;;;;;15.70;97.10;;;;;;5049412;28;19966;-68
2021/10/19 13:33:33;;;;;;;;;;;15.70;97.20;;;;;;5045805;28;19916;-68
2021/10/19 13:36:01;;;;;;;;;;;15.70;97.30;;;;;;5045298;28;19917;-68
2021/10/19 13:38:27;;;;;;;;;;;15.70;97.40;;;;;;5018443;28;19913;-68
2021/10/19 13:40:52;;;;;;;;;;;15.70;97.40;;;;;;5043440;28;19921;-67
2021/10/19 13:43:18;;;;;;;;;;;15.70;97.40;;;;;;5045985;28;19919;-68
2021/10/19 13:45:45;;;;;;;;;;;15.70;97.40;;;;;;5048580;28;19917;-68
2021/10/19 13:48:11;;;;;;;;;;;15.70;97.40;;;;;;5045563;28;20003;-70
2021/10/19 13:50:37;;;;;;;;;;;15.60;97.40;;;;;;5043483;28;20007;-69
2021/10/19 13:53:06;;;;;;;;;;;15.60;97.60;;;;;;5039206;28;19917;-69
2021/10/19 13:55:32;;;;;;;;;;;15.60;97.60;;;;;;5048455;28;19916;-69
2021/10/19 13:57:57;;;;;;;;;;;15.60;97.70;;;;;;5022902;28;19978;-69
2021/10/19 14:00:23;;;;;;;;;;;15.60;97.70;;;;;;5021542;28;20385;-68
2021/10/19 14:02:48;;;;;;;;;;;15.60;97.70;;;;;;5044134;28;19916;-69
2021/10/19 14:05:13;;;;;;;;;;;15.60;97.80;;;;;;5048411;28;20295;-69
2021/10/19 14:07:39;;;;;;;;;;;15.60;97.70;;;;;;5044632;28;20288;-69
2021/10/19 14:10:06;;;;;;;;;;;15.60;97.70;;;;;;5037522;28;19953;-69
2021/10/19 14:12:31;;;;;;;;;;;15.60;97.70;;;;;;5044205;28;19929;-69